createdAt,value
2017-11-26T00:00:45.985Z,0.00
2017-11-26T00:01:46.015Z,0.00
2017-11-26T00:02:45.995Z,0.00
2017-11-26T00:03:46.005Z,0.00
2017-11-26T00:04:46.010Z,0.00
2017-11-26T00:05:46.015Z,0.00
2017-11-26T00:06:46.032Z,0.00
2017-11-26T00:07:46.028Z,0.00
2017-11-26T00:08:46.047Z,0.00
2017-11-26T00:09:46.035Z,0.00
2017-11-26T00:10:46.062Z,0.00
2017-11-26T00:11:46.049Z,0.00
2017-11-26T00:12:46.059Z,0.00
2017-11-26T00:13:46.057Z,0.00
2017-11-26T00:14:46.071Z,0.00
2017-11-26T00:15:46.073Z,0.00
2017-11-26T00:16:46.084Z,0.00
2017-11-26T00:17:46.089Z,0.00
2017-11-26T00:18:46.095Z,0.00
2017-11-26T00:19:46.097Z,0.00
2017-11-26T00:20:46.196Z,0.00
2017-11-26T00:21:46.106Z,0.00
2017-11-26T00:22:46.111Z,0.00
2017-11-26T00:23:46.115Z,0.00
2017-11-26T00:24:46.144Z,0.00
2017-11-26T00:25:46.136Z,0.00
2017-11-26T00:26:46.134Z,0.00
2017-11-26T00:27:46.145Z,0.00
2017-11-26T00:28:46.142Z,0.00
2017-11-26T00:29:46.154Z,0.00
2017-11-26T00:30:46.152Z,0.00
2017-11-26T00:31:46.166Z,0.00
2017-11-26T00:32:46.170Z,0.00
2017-11-26T00:33:46.223Z,0.00
2017-11-26T00:34:46.182Z,0.00
2017-11-26T00:35:46.185Z,0.00
2017-11-26T00:36:46.195Z,0.00
2017-11-26T00:37:46.199Z,0.00
2017-11-26T00:38:46.199Z,0.00
2017-11-26T00:39:46.481Z,0.00
2017-11-26T00:40:46.210Z,0.00
2017-11-26T00:41:46.218Z,0.00
2017-11-26T00:42:46.224Z,0.00
2017-11-26T00:43:46.234Z,0.00
2017-11-26T00:44:46.257Z,0.00
2017-11-26T00:45:46.237Z,0.00
2017-11-26T00:46:46.245Z,0.00
2017-11-26T00:47:46.255Z,0.00
2017-11-26T00:48:46.254Z,0.00
2017-11-26T00:49:46.257Z,0.00
2017-11-26T00:50:46.270Z,0.00
2017-11-26T00:51:46.271Z,0.00
2017-11-26T00:52:46.278Z,0.00
2017-11-26T00:53:46.298Z,0.00
2017-11-26T00:54:46.291Z,0.00
2017-11-26T00:55:46.291Z,0.00
2017-11-26T00:56:46.301Z,0.00
2017-11-26T00:57:46.305Z,0.00
2017-11-26T00:58:46.306Z,0.00
2017-11-26T00:59:46.318Z,0.00
2017-11-26T01:00:46.317Z,0.00
2017-11-26T01:01:46.346Z,0.00
2017-11-26T01:02:46.331Z,0.00
2017-11-26T01:03:46.337Z,0.00
2017-11-26T01:04:46.348Z,0.00
2017-11-26T01:05:46.344Z,0.00
2017-11-26T01:06:46.352Z,0.00
2017-11-26T01:07:46.366Z,0.00
2017-11-26T01:08:46.357Z,0.00
2017-11-26T01:09:46.370Z,0.00
2017-11-26T01:10:46.380Z,0.00
2017-11-26T01:11:46.487Z,0.00
2017-11-26T01:12:46.381Z,0.00
2017-11-26T01:13:46.394Z,0.00
2017-11-26T01:14:46.397Z,0.00
2017-11-26T01:15:46.410Z,0.00
2017-11-26T01:16:46.416Z,0.00
2017-11-26T01:17:46.409Z,0.00
2017-11-26T01:18:46.421Z,0.00
2017-11-26T01:19:46.427Z,0.00
2017-11-26T01:20:46.430Z,0.00
2017-11-26T01:21:46.440Z,0.00
2017-11-26T01:22:46.448Z,0.00
2017-11-26T01:23:46.439Z,0.00
2017-11-26T01:24:46.499Z,0.00
2017-11-26T01:25:46.491Z,0.00
2017-11-26T01:26:46.455Z,0.00
2017-11-26T01:27:46.472Z,0.00
2017-11-26T01:28:46.471Z,0.00
2017-11-26T01:29:46.791Z,0.00
2017-11-26T01:30:46.487Z,0.00
2017-11-26T01:31:46.489Z,0.00
2017-11-26T01:32:46.522Z,0.00
2017-11-26T01:33:46.501Z,0.00
2017-11-26T01:34:46.511Z,0.00
2017-11-26T01:35:46.507Z,0.00
2017-11-26T01:36:46.518Z,0.00
2017-11-26T01:37:46.526Z,0.00
2017-11-26T01:38:46.528Z,0.00
2017-11-26T01:39:46.549Z,0.00
2017-11-26T01:40:46.543Z,0.00
2017-11-26T01:41:46.545Z,0.00
2017-11-26T01:42:46.545Z,0.00
2017-11-26T01:43:46.549Z,0.00
2017-11-26T01:44:46.745Z,0.00
2017-11-26T01:45:46.567Z,0.00
2017-11-26T01:46:46.575Z,0.00
2017-11-26T01:47:47.212Z,0.00
2017-11-26T01:48:46.576Z,0.00
2017-11-26T01:49:46.588Z,0.00
2017-11-26T01:50:46.612Z,0.00
2017-11-26T01:51:46.597Z,0.00
2017-11-26T01:52:46.615Z,0.00
2017-11-26T01:53:46.607Z,0.00
2017-11-26T01:54:46.612Z,0.00
2017-11-26T01:55:46.613Z,0.00
2017-11-26T01:56:46.621Z,0.00
2017-11-26T01:57:46.636Z,0.00
2017-11-26T01:58:46.705Z,0.00
2017-11-26T01:59:46.638Z,0.00
2017-11-26T02:00:46.642Z,0.00
2017-11-26T02:01:46.647Z,0.00
2017-11-26T02:02:46.719Z,0.00
2017-11-26T02:03:47.072Z,0.00
2017-11-26T02:04:46.667Z,0.00
2017-11-26T02:05:46.674Z,0.00
2017-11-26T02:06:46.676Z,0.00
2017-11-26T02:07:46.687Z,0.00
2017-11-26T02:08:46.921Z,0.00
2017-11-26T02:09:46.687Z,0.00
2017-11-26T02:10:46.696Z,0.00
2017-11-26T02:11:46.696Z,0.00
2017-11-26T02:12:47.022Z,0.00
2017-11-26T02:13:46.709Z,0.00
2017-11-26T02:14:46.716Z,0.00
2017-11-26T02:15:46.727Z,0.00
2017-11-26T02:16:46.732Z,0.00
2017-11-26T02:17:47.057Z,0.00
2017-11-26T02:18:46.738Z,0.00
2017-11-26T02:19:47.117Z,0.00
2017-11-26T02:20:46.749Z,0.00
2017-11-26T02:21:46.753Z,0.00
2017-11-26T02:22:46.758Z,0.00
2017-11-26T02:23:46.767Z,0.00
2017-11-26T02:25:46.855Z,0.00
2017-11-26T02:26:46.789Z,0.00
2017-11-26T02:27:46.800Z,0.00
2017-11-26T02:28:46.783Z,0.00
2017-11-26T02:29:47.100Z,0.00
2017-11-26T02:30:46.808Z,0.00
2017-11-26T02:31:46.804Z,0.00
2017-11-26T02:32:46.809Z,0.00
2017-11-26T02:33:46.812Z,0.00
2017-11-26T02:34:46.828Z,0.00
2017-11-26T02:35:46.829Z,0.00
2017-11-26T02:36:46.835Z,0.00
2017-11-26T02:37:46.839Z,0.00
2017-11-26T02:38:46.844Z,0.00
2017-11-26T02:39:46.851Z,0.00
2017-11-26T02:40:46.853Z,0.00
2017-11-26T02:41:46.855Z,0.00
2017-11-26T02:42:46.941Z,0.00
2017-11-26T02:43:47.670Z,0.00
2017-11-26T02:44:46.883Z,0.00
2017-11-26T02:45:46.876Z,0.00
2017-11-26T02:46:46.888Z,0.00
2017-11-26T02:47:46.887Z,0.00
2017-11-26T02:48:46.934Z,0.00
2017-11-26T02:49:46.899Z,0.00
2017-11-26T02:50:46.904Z,0.00
2017-11-26T02:51:46.923Z,0.00
2017-11-26T02:52:46.922Z,0.00
2017-11-26T02:53:46.931Z,0.00
2017-11-26T02:54:46.941Z,0.00
2017-11-26T02:55:46.938Z,0.00
2017-11-26T02:56:46.937Z,0.00
2017-11-26T02:57:46.967Z,0.00
2017-11-26T02:58:46.953Z,0.00
2017-11-26T02:59:46.953Z,0.00
2017-11-26T03:00:46.963Z,0.00
2017-11-26T03:01:46.972Z,0.00
2017-11-26T03:02:46.974Z,0.00
2017-11-26T03:03:46.977Z,0.00
2017-11-26T03:04:46.980Z,0.00
2017-11-26T03:05:46.994Z,0.00
2017-11-26T03:06:47.013Z,0.00
2017-11-26T03:07:47.005Z,0.00
2017-11-26T03:08:47.002Z,0.00
2017-11-26T03:09:47.322Z,0.00
2017-11-26T03:10:47.017Z,0.00
2017-11-26T03:11:47.015Z,0.00
2017-11-26T03:12:47.026Z,0.00
2017-11-26T03:13:47.034Z,0.00
2017-11-26T03:14:47.085Z,0.00
2017-11-26T03:15:47.056Z,0.00
2017-11-26T03:16:47.090Z,0.00
2017-11-26T03:17:47.063Z,0.00
2017-11-26T03:18:47.062Z,0.00
2017-11-26T03:19:47.079Z,0.00
2017-11-26T03:20:47.065Z,0.00
2017-11-26T03:21:47.083Z,0.00
2017-11-26T03:22:47.075Z,0.00
2017-11-26T03:23:47.091Z,0.00
2017-11-26T03:24:47.086Z,0.00
2017-11-26T03:25:47.093Z,0.00
2017-11-26T03:26:47.117Z,0.00
2017-11-26T03:27:47.103Z,0.00
2017-11-26T03:28:47.112Z,0.00
2017-11-26T03:29:47.116Z,0.00
2017-11-26T03:30:47.450Z,0.00
2017-11-26T03:31:47.130Z,0.00
2017-11-26T03:32:47.142Z,0.00
2017-11-26T03:33:47.137Z,0.00
2017-11-26T03:34:47.149Z,0.00
2017-11-26T03:35:47.152Z,0.00
2017-11-26T03:36:47.168Z,0.00
2017-11-26T03:37:47.159Z,0.00
2017-11-26T03:38:47.195Z,0.00
2017-11-26T03:39:47.175Z,0.00
2017-11-26T03:40:47.179Z,0.00
2017-11-26T03:41:47.182Z,0.00
2017-11-26T03:42:47.238Z,0.00
2017-11-26T03:43:47.196Z,0.00
2017-11-26T03:44:48.153Z,0.00
2017-11-26T03:45:47.201Z,0.00
2017-11-26T03:46:47.210Z,0.00
2017-11-26T03:47:47.462Z,0.00
2017-11-26T03:48:47.226Z,0.00
2017-11-26T03:49:47.226Z,0.00
2017-11-26T03:50:47.230Z,0.00
2017-11-26T03:51:47.244Z,0.00
2017-11-26T03:52:47.249Z,0.00
2017-11-26T03:53:47.251Z,0.00
2017-11-26T03:54:47.248Z,0.00
2017-11-26T03:55:47.261Z,0.00
2017-11-26T03:56:47.272Z,0.00
2017-11-26T03:57:47.309Z,0.00
2017-11-26T03:58:47.270Z,0.00
2017-11-26T03:59:47.416Z,0.00
2017-11-26T04:00:47.288Z,0.00
2017-11-26T04:01:47.293Z,0.00
2017-11-26T04:02:47.306Z,0.00
2017-11-26T04:03:47.404Z,0.00
2017-11-26T04:04:47.306Z,0.00
2017-11-26T04:05:47.315Z,0.00
2017-11-26T04:06:47.319Z,0.00
2017-11-26T04:07:47.320Z,0.00
2017-11-26T04:08:47.405Z,0.00
2017-11-26T04:09:47.343Z,0.00
2017-11-26T04:10:47.339Z,0.00
2017-11-26T04:11:47.346Z,0.00
2017-11-26T04:12:48.159Z,0.00
2017-11-26T04:13:47.405Z,0.00
2017-11-26T04:14:47.362Z,0.00
2017-11-26T04:15:47.369Z,0.00
2017-11-26T04:16:47.375Z,0.00
2017-11-26T04:17:47.374Z,0.00
2017-11-26T04:18:47.381Z,0.00
2017-11-26T04:19:47.395Z,0.00
2017-11-26T04:20:47.396Z,0.00
2017-11-26T04:21:47.400Z,0.00
2017-11-26T04:22:47.403Z,0.00
2017-11-26T04:23:47.412Z,0.00
2017-11-26T04:24:47.535Z,0.00
2017-11-26T04:25:47.432Z,0.00
2017-11-26T04:26:47.432Z,0.00
2017-11-26T04:27:47.436Z,0.00
2017-11-26T04:28:47.446Z,0.00
2017-11-26T04:29:47.707Z,0.00
2017-11-26T04:30:47.449Z,0.00
2017-11-26T04:31:47.460Z,0.00
2017-11-26T04:32:47.462Z,0.00
2017-11-26T04:33:47.460Z,0.00
2017-11-26T04:34:47.467Z,0.00
2017-11-26T04:35:47.469Z,0.00
2017-11-26T04:36:47.483Z,0.00
2017-11-26T04:37:47.491Z,0.00
2017-11-26T04:38:47.497Z,0.00
2017-11-26T04:39:47.498Z,0.00
2017-11-26T04:40:47.504Z,0.00
2017-11-26T04:41:47.541Z,0.00
2017-11-26T04:42:47.510Z,0.00
2017-11-26T04:43:47.539Z,0.00
2017-11-26T04:44:47.529Z,0.00
2017-11-26T04:45:47.586Z,0.00
2017-11-26T04:46:47.538Z,0.00
2017-11-26T04:47:47.546Z,0.00
2017-11-26T04:48:47.637Z,0.00
2017-11-26T04:49:47.565Z,0.00
2017-11-26T04:50:47.571Z,0.00
2017-11-26T04:51:47.576Z,0.00
2017-11-26T04:52:47.569Z,0.00
2017-11-26T04:53:47.569Z,0.00
2017-11-26T04:54:47.572Z,0.00
2017-11-26T04:55:47.581Z,0.00
2017-11-26T04:56:47.592Z,0.00
2017-11-26T04:57:47.595Z,0.00
2017-11-26T04:58:47.594Z,0.00
2017-11-26T04:59:47.602Z,0.00
2017-11-26T05:00:47.614Z,0.00
2017-11-26T05:01:47.618Z,0.00
2017-11-26T05:02:47.621Z,0.00
2017-11-26T05:03:47.621Z,0.00
2017-11-26T05:04:47.627Z,0.00
2017-11-26T05:05:47.640Z,0.00
2017-11-26T05:06:47.728Z,0.00
2017-11-26T05:07:47.650Z,0.00
2017-11-26T05:08:47.690Z,0.00
2017-11-26T05:09:47.662Z,0.00
2017-11-26T05:10:47.669Z,0.00
2017-11-26T05:11:47.669Z,0.00
2017-11-26T05:12:47.668Z,0.00
2017-11-26T05:13:47.677Z,0.00
2017-11-26T05:14:47.683Z,0.00
2017-11-26T05:15:47.686Z,0.00
2017-11-26T05:16:47.692Z,0.00
2017-11-26T05:17:47.704Z,0.00
2017-11-26T05:18:47.715Z,0.00
2017-11-26T05:19:47.714Z,0.00
2017-11-26T05:20:47.730Z,0.00
2017-11-26T05:21:47.731Z,0.00
2017-11-26T05:22:47.719Z,0.00
2017-11-26T05:23:47.732Z,0.00
2017-11-26T05:24:47.734Z,0.00
2017-11-26T05:25:47.744Z,0.00
2017-11-26T05:26:47.740Z,0.00
2017-11-26T05:27:47.853Z,0.00
2017-11-26T05:28:47.800Z,0.00
2017-11-26T05:29:47.818Z,0.00
2017-11-26T05:30:47.764Z,0.00
2017-11-26T05:31:47.772Z,0.00
2017-11-26T05:32:47.873Z,0.00
2017-11-26T05:33:47.801Z,0.00
2017-11-26T05:34:47.829Z,0.00
2017-11-26T05:35:47.799Z,0.00
2017-11-26T05:36:47.814Z,0.00
2017-11-26T05:37:47.829Z,0.00
2017-11-26T05:38:47.822Z,0.00
2017-11-26T05:39:47.883Z,0.00
2017-11-26T05:40:47.883Z,0.00
2017-11-26T05:41:47.824Z,0.00
2017-11-26T05:42:47.863Z,0.00
2017-11-26T05:43:47.838Z,0.00
2017-11-26T05:44:47.845Z,0.00
2017-11-26T05:45:47.873Z,0.00
2017-11-26T05:46:47.860Z,0.00
2017-11-26T05:47:47.871Z,0.00
2017-11-26T05:48:47.944Z,0.00
2017-11-26T05:49:47.867Z,0.00
2017-11-26T05:50:47.876Z,0.00
2017-11-26T05:51:47.872Z,0.00
2017-11-26T05:52:47.884Z,0.00
2017-11-26T05:53:47.884Z,0.00
2017-11-26T05:54:47.905Z,0.00
2017-11-26T05:55:47.916Z,0.00
2017-11-26T05:56:47.906Z,0.00
2017-11-26T05:57:47.934Z,0.00
2017-11-26T05:58:47.916Z,0.00
2017-11-26T05:59:47.917Z,0.00
2017-11-26T06:00:47.936Z,0.00
2017-11-26T06:01:47.924Z,0.00
2017-11-26T06:02:47.941Z,0.00
2017-11-26T06:03:47.942Z,0.00
2017-11-26T06:04:47.938Z,0.00
2017-11-26T06:05:47.952Z,0.00
2017-11-26T06:06:47.959Z,0.00
2017-11-26T06:07:47.955Z,0.00
2017-11-26T06:08:47.965Z,0.00
2017-11-26T06:09:47.971Z,0.00
2017-11-26T06:10:47.980Z,0.00
2017-11-26T06:11:47.984Z,0.00
2017-11-26T06:12:51.867Z,0.00
2017-11-26T06:13:47.992Z,0.00
2017-11-26T06:14:48.000Z,0.00
2017-11-26T06:15:48.009Z,0.00
2017-11-26T06:16:48.012Z,0.00
2017-11-26T06:17:48.011Z,0.00
2017-11-26T06:18:48.014Z,0.00
2017-11-26T06:19:48.027Z,0.00
2017-11-26T06:20:48.123Z,0.00
2017-11-26T06:21:48.036Z,0.00
2017-11-26T06:22:48.035Z,0.00
2017-11-26T06:23:48.047Z,0.00
2017-11-26T06:24:48.050Z,0.00
2017-11-26T06:25:48.055Z,0.00
2017-11-26T06:26:48.056Z,0.00
2017-11-26T06:27:48.064Z,0.00
2017-11-26T06:28:48.070Z,0.00
2017-11-26T06:29:48.083Z,0.00
2017-11-26T06:30:48.076Z,0.00
2017-11-26T06:31:48.084Z,0.00
2017-11-26T06:32:48.107Z,0.00
2017-11-26T06:33:48.122Z,0.00
2017-11-26T06:34:48.110Z,0.00
2017-11-26T06:35:48.106Z,0.00
2017-11-26T06:36:48.120Z,0.00
2017-11-26T06:37:48.115Z,0.00
2017-11-26T06:38:48.120Z,0.00
2017-11-26T06:39:48.130Z,0.00
2017-11-26T06:40:48.132Z,0.00
2017-11-26T06:41:48.143Z,0.00
2017-11-26T06:42:48.149Z,0.00
2017-11-26T06:43:48.154Z,0.00
2017-11-26T06:44:48.152Z,0.00
2017-11-26T06:45:48.164Z,0.00
2017-11-26T06:46:48.165Z,0.00
2017-11-26T06:47:48.165Z,0.00
2017-11-26T06:48:48.184Z,0.00
2017-11-26T06:49:48.181Z,0.00
2017-11-26T06:50:48.188Z,0.00
2017-11-26T06:51:48.193Z,0.00
2017-11-26T06:52:48.193Z,0.00
2017-11-26T06:53:48.202Z,0.00
2017-11-26T06:54:48.210Z,0.00
2017-11-26T06:55:48.217Z,0.00
2017-11-26T06:56:48.222Z,5.63
2017-11-26T06:57:48.219Z,5.63
2017-11-26T06:58:48.224Z,5.63
2017-11-26T06:59:48.247Z,5.63
2017-11-26T07:00:48.246Z,5.63
2017-11-26T07:01:48.294Z,5.63
2017-11-26T07:02:48.247Z,5.63
2017-11-26T07:03:48.272Z,5.63
2017-11-26T07:04:48.288Z,5.63
2017-11-26T07:05:48.261Z,5.63
2017-11-26T07:06:48.262Z,5.63
2017-11-26T07:07:48.277Z,5.63
2017-11-26T07:08:48.277Z,5.63
2017-11-26T07:09:48.285Z,5.63
2017-11-26T07:10:48.290Z,5.63
2017-11-26T07:11:48.408Z,5.63
2017-11-26T07:12:48.306Z,5.63
2017-11-26T07:13:48.305Z,11.25
2017-11-26T07:14:48.313Z,11.25
2017-11-26T07:15:48.312Z,16.88
2017-11-26T07:16:48.326Z,22.50
2017-11-26T07:17:48.334Z,22.50
2017-11-26T07:18:48.340Z,22.50
2017-11-26T07:19:48.341Z,22.50
2017-11-26T07:20:48.343Z,22.50
2017-11-26T07:21:48.353Z,22.50
2017-11-26T07:22:48.361Z,16.88
2017-11-26T07:23:48.360Z,16.88
2017-11-26T07:24:48.383Z,16.88
2017-11-26T07:25:48.380Z,22.50
2017-11-26T07:26:48.383Z,16.88
2017-11-26T07:27:48.391Z,11.25
2017-11-26T07:28:48.393Z,16.88
2017-11-26T07:29:48.412Z,16.88
2017-11-26T07:30:48.421Z,16.88
2017-11-26T07:31:48.420Z,16.88
2017-11-26T07:32:48.413Z,22.50
2017-11-26T07:33:48.421Z,28.13
2017-11-26T07:34:48.417Z,28.13
2017-11-26T07:35:48.429Z,22.50
2017-11-26T07:36:48.444Z,22.50
2017-11-26T07:37:48.473Z,33.75
2017-11-26T07:38:48.461Z,39.38
2017-11-26T07:39:48.570Z,33.75
2017-11-26T07:40:48.456Z,33.75
2017-11-26T07:41:48.470Z,28.13
2017-11-26T07:42:48.466Z,33.75
2017-11-26T07:43:48.481Z,33.75
2017-11-26T07:44:48.489Z,33.75
2017-11-26T07:45:48.482Z,33.75
2017-11-26T07:46:48.490Z,39.38
2017-11-26T07:47:48.497Z,45.00
2017-11-26T07:48:48.498Z,45.00
2017-11-26T07:49:48.510Z,39.38
2017-11-26T07:50:48.511Z,33.75
2017-11-26T07:51:48.512Z,39.38
2017-11-26T07:52:48.523Z,56.25
2017-11-26T07:53:48.528Z,39.38
2017-11-26T07:54:48.529Z,45.00
2017-11-26T07:55:48.544Z,45.00
2017-11-26T07:56:48.554Z,61.88
2017-11-26T07:57:48.553Z,61.88
2017-11-26T07:58:48.554Z,61.88
2017-11-26T07:59:48.560Z,67.50
2017-11-26T08:00:48.582Z,90.00
2017-11-26T08:01:48.569Z,123.75
2017-11-26T08:02:48.573Z,106.88
2017-11-26T08:03:48.582Z,73.13
2017-11-26T08:04:48.587Z,61.88
2017-11-26T08:05:48.596Z,45.00
2017-11-26T08:06:48.595Z,50.63
2017-11-26T08:07:48.609Z,45.00
2017-11-26T08:08:48.613Z,50.63
2017-11-26T08:09:48.614Z,50.63
2017-11-26T08:10:48.626Z,61.88
2017-11-26T08:11:48.633Z,61.88
2017-11-26T08:12:48.634Z,61.88
2017-11-26T08:13:48.640Z,90.00
2017-11-26T08:14:48.645Z,95.63
2017-11-26T08:15:48.659Z,78.75
2017-11-26T08:16:48.667Z,61.88
2017-11-26T08:17:48.660Z,67.50
2017-11-26T08:18:48.680Z,78.75
2017-11-26T08:19:48.675Z,73.13
2017-11-26T08:20:48.688Z,90.00
2017-11-26T08:21:48.692Z,101.25
2017-11-26T08:22:48.684Z,106.88
2017-11-26T08:23:48.694Z,123.75
2017-11-26T08:24:48.706Z,135.00
2017-11-26T08:25:48.710Z,146.25
2017-11-26T08:26:48.714Z,168.75
2017-11-26T08:27:48.718Z,174.38
2017-11-26T08:28:48.721Z,196.88
2017-11-26T08:29:48.730Z,185.63
2017-11-26T08:30:48.743Z,202.50
2017-11-26T08:31:48.743Z,213.75
2017-11-26T08:32:48.748Z,140.63
2017-11-26T08:33:48.753Z,180.00
2017-11-26T08:34:48.757Z,185.63
2017-11-26T08:35:48.767Z,253.13
2017-11-26T08:36:48.775Z,202.50
2017-11-26T08:37:48.775Z,185.63
2017-11-26T08:38:48.781Z,185.63
2017-11-26T08:39:48.796Z,225.00
2017-11-26T08:40:48.798Z,236.25
2017-11-26T08:41:48.800Z,213.75
2017-11-26T08:42:48.810Z,196.88
2017-11-26T08:43:48.819Z,180.00
2017-11-26T08:44:48.821Z,168.75
2017-11-26T08:45:48.821Z,185.63
2017-11-26T08:46:48.831Z,213.75
2017-11-26T08:47:48.834Z,219.38
2017-11-26T08:48:48.850Z,219.38
2017-11-26T08:49:48.850Z,208.13
2017-11-26T08:50:48.854Z,180.00
2017-11-26T08:51:48.866Z,202.50
2017-11-26T08:52:48.863Z,202.50
2017-11-26T08:53:49.668Z,241.88
2017-11-26T08:54:48.876Z,236.25
2017-11-26T08:55:48.882Z,196.88
2017-11-26T08:56:48.893Z,225.00
2017-11-26T08:57:48.896Z,258.75
2017-11-26T08:58:48.920Z,213.75
2017-11-26T08:59:48.913Z,202.50
2017-11-26T09:00:48.915Z,196.88
2017-11-26T09:01:48.958Z,191.25
2017-11-26T09:02:48.932Z,129.38
2017-11-26T09:03:48.942Z,140.63
2017-11-26T09:04:48.939Z,163.13
2017-11-26T09:05:48.947Z,163.13
2017-11-26T09:06:49.662Z,168.75
2017-11-26T09:07:48.970Z,163.13
2017-11-26T09:08:48.966Z,174.38
2017-11-26T09:09:48.975Z,163.13
2017-11-26T09:10:48.983Z,140.63
2017-11-26T09:11:48.997Z,146.25
2017-11-26T09:12:48.986Z,140.63
2017-11-26T09:13:49.002Z,129.38
2017-11-26T09:14:49.006Z,123.75
2017-11-26T09:15:49.010Z,129.38
2017-11-26T09:16:49.021Z,140.63
2017-11-26T09:17:49.022Z,129.38
2017-11-26T09:18:49.025Z,135.00
2017-11-26T09:19:49.039Z,129.38
2017-11-26T09:20:49.047Z,123.75
2017-11-26T09:21:49.162Z,112.50
2017-11-26T09:22:49.051Z,106.88
2017-11-26T09:23:49.093Z,129.38
2017-11-26T09:24:49.065Z,185.63
2017-11-26T09:25:49.070Z,213.75
2017-11-26T09:26:49.089Z,180.00
2017-11-26T09:27:49.083Z,174.38
2017-11-26T09:28:49.099Z,163.13
2017-11-26T09:29:49.095Z,163.13
2017-11-26T09:30:49.099Z,146.25
2017-11-26T09:31:49.108Z,157.50
2017-11-26T09:32:49.114Z,146.25
2017-11-26T09:33:49.133Z,151.88
2017-11-26T09:34:49.127Z,140.63
2017-11-26T09:35:49.146Z,129.38
2017-11-26T09:36:49.144Z,123.75
2017-11-26T09:37:49.154Z,106.88
2017-11-26T09:38:49.156Z,123.75
2017-11-26T09:39:49.163Z,146.25
2017-11-26T09:40:49.176Z,163.13
2017-11-26T09:41:49.172Z,146.25
2017-11-26T09:42:49.181Z,101.25
2017-11-26T09:43:49.184Z,123.75
2017-11-26T09:44:49.294Z,157.50
2017-11-26T09:45:49.194Z,168.75
2017-11-26T09:46:49.204Z,129.38
2017-11-26T09:47:49.212Z,140.63
2017-11-26T09:48:49.224Z,118.13
2017-11-26T09:49:49.224Z,140.63
2017-11-26T09:50:49.226Z,112.50
2017-11-26T09:51:49.246Z,129.38
2017-11-26T09:52:49.240Z,146.25
2017-11-26T09:53:49.243Z,163.13
2017-11-26T09:54:49.255Z,174.38
2017-11-26T09:55:49.282Z,174.38
2017-11-26T09:56:49.263Z,168.75
2017-11-26T09:57:49.277Z,219.38
2017-11-26T09:58:49.285Z,202.50
2017-11-26T09:59:49.292Z,157.50
2017-11-26T10:00:49.311Z,129.38
2017-11-26T10:01:49.299Z,118.13
2017-11-26T10:02:49.310Z,112.50
2017-11-26T10:03:49.308Z,106.88
2017-11-26T10:04:49.319Z,118.13
2017-11-26T10:05:49.331Z,123.75
2017-11-26T10:06:49.335Z,168.75
2017-11-26T10:07:49.356Z,225.00
2017-11-26T10:08:49.364Z,213.75
2017-11-26T10:09:49.352Z,151.88
2017-11-26T10:10:49.361Z,129.38
2017-11-26T10:11:49.392Z,180.00
2017-11-26T10:12:49.376Z,191.25
2017-11-26T10:13:49.385Z,157.50
2017-11-26T10:14:49.391Z,174.38
2017-11-26T10:15:49.402Z,213.75
2017-11-26T10:16:49.396Z,230.63
2017-11-26T10:17:49.405Z,241.88
2017-11-26T10:18:49.409Z,236.25
2017-11-26T10:19:49.415Z,174.38
2017-11-26T10:20:49.425Z,140.63
2017-11-26T10:21:49.431Z,168.75
2017-11-26T10:22:49.436Z,219.38
2017-11-26T10:23:49.447Z,180.00
2017-11-26T10:24:49.451Z,180.00
2017-11-26T10:25:49.477Z,219.38
2017-11-26T10:26:49.466Z,185.63
2017-11-26T10:27:49.470Z,163.13
2017-11-26T10:28:49.483Z,135.00
2017-11-26T10:29:49.479Z,135.00
2017-11-26T10:30:49.486Z,118.13
2017-11-26T10:31:49.505Z,140.63
2017-11-26T10:32:49.505Z,140.63
2017-11-26T10:33:49.509Z,168.75
2017-11-26T10:34:49.518Z,202.50
2017-11-26T10:35:49.598Z,202.50
2017-11-26T10:36:49.530Z,185.63
2017-11-26T10:37:49.549Z,185.63
2017-11-26T10:38:49.543Z,196.88
2017-11-26T10:39:49.548Z,208.13
2017-11-26T10:40:49.561Z,241.88
2017-11-26T10:41:49.563Z,225.00
2017-11-26T10:42:49.568Z,163.13
2017-11-26T10:43:49.605Z,168.75
2017-11-26T10:44:49.589Z,151.88
2017-11-26T10:45:49.584Z,140.63
2017-11-26T10:46:49.613Z,112.50
2017-11-26T10:47:49.609Z,101.25
2017-11-26T10:48:49.616Z,106.88
2017-11-26T10:49:49.614Z,129.38
2017-11-26T10:50:49.624Z,123.75
2017-11-26T10:51:49.629Z,106.88
2017-11-26T10:52:49.641Z,106.88
2017-11-26T10:53:49.641Z,129.38
2017-11-26T10:54:49.653Z,140.63
2017-11-26T10:55:49.659Z,180.00
2017-11-26T10:56:49.772Z,157.50
2017-11-26T10:58:49.689Z,202.50
2017-11-26T10:59:49.678Z,219.38
2017-11-26T11:00:49.719Z,241.88
2017-11-26T11:01:50.069Z,253.13
2017-11-26T11:02:49.710Z,219.38
2017-11-26T11:03:49.710Z,168.75
2017-11-26T11:04:49.721Z,151.88
2017-11-26T11:05:49.750Z,129.38
2017-11-26T11:06:49.728Z,118.13
2017-11-26T11:07:49.738Z,112.50
2017-11-26T11:08:49.749Z,112.50
2017-11-26T11:09:49.744Z,112.50
2017-11-26T11:10:49.770Z,95.63
2017-11-26T11:11:49.762Z,101.25
2017-11-26T11:12:49.769Z,95.63
2017-11-26T11:13:49.783Z,95.63
2017-11-26T11:14:49.788Z,95.63
2017-11-26T11:15:49.784Z,106.88
2017-11-26T11:16:49.812Z,112.50
2017-11-26T11:17:49.819Z,135.00
2017-11-26T11:18:49.808Z,123.75
2017-11-26T11:19:49.817Z,135.00
2017-11-26T11:20:49.823Z,140.63
2017-11-26T11:21:49.843Z,123.75
2017-11-26T11:22:49.838Z,151.88
2017-11-26T11:23:49.844Z,191.25
2017-11-26T11:24:49.850Z,236.25
2017-11-26T11:25:49.858Z,286.88
2017-11-26T11:26:49.965Z,337.50
2017-11-26T11:27:49.876Z,326.25
2017-11-26T11:28:49.877Z,225.00
2017-11-26T11:29:49.891Z,202.50
2017-11-26T11:30:49.896Z,202.50
2017-11-26T11:31:49.909Z,230.63
2017-11-26T11:32:49.909Z,320.63
2017-11-26T11:33:49.913Z,331.88
2017-11-26T11:34:49.928Z,213.75
2017-11-26T11:35:49.925Z,196.88
2017-11-26T11:36:49.945Z,123.75
2017-11-26T11:37:49.940Z,90.00
2017-11-26T11:38:49.949Z,101.25
2017-11-26T11:39:49.956Z,140.63
2017-11-26T11:40:49.970Z,157.50
2017-11-26T11:41:49.969Z,163.13
2017-11-26T11:42:49.982Z,213.75
2017-11-26T11:43:49.981Z,309.38
2017-11-26T11:44:49.994Z,348.75
2017-11-26T11:45:49.995Z,382.50
2017-11-26T11:46:50.003Z,579.38
2017-11-26T11:47:50.011Z,438.75
2017-11-26T11:49:50.021Z,528.75
2017-11-26T11:50:50.043Z,495.00
2017-11-26T11:51:50.053Z,348.75
2017-11-26T11:52:50.042Z,365.63
2017-11-26T11:53:50.059Z,624.38
2017-11-26T11:54:50.083Z,534.38
2017-11-26T11:55:50.084Z,573.75
2017-11-26T11:56:50.075Z,517.50
2017-11-26T11:57:50.089Z,478.13
2017-11-26T11:58:50.106Z,506.25
2017-11-26T11:59:50.107Z,601.88
2017-11-26T12:00:50.106Z,736.88
2017-11-26T12:01:50.111Z,871.88
2017-11-26T12:04:50.163Z,849.38
2017-11-26T12:05:50.140Z,933.75
2017-11-26T12:06:50.147Z,950.63
2017-11-26T12:07:50.164Z,922.50
2017-11-26T12:08:50.179Z,495.00
2017-11-26T12:09:50.173Z,438.75
2017-11-26T12:10:50.179Z,523.13
2017-11-26T12:11:50.190Z,731.25
2017-11-26T12:12:50.212Z,556.88
2017-11-26T12:13:50.209Z,455.63
2017-11-26T12:14:50.674Z,376.88
2017-11-26T12:15:50.225Z,315.00
2017-11-26T12:16:50.235Z,326.25
2017-11-26T12:17:50.255Z,320.63
2017-11-26T12:18:50.244Z,376.88
2017-11-26T12:19:50.261Z,393.75
2017-11-26T12:20:50.273Z,331.88
2017-11-26T12:21:50.277Z,315.00
2017-11-26T12:22:50.292Z,331.88
2017-11-26T12:23:50.288Z,388.13
2017-11-26T12:24:50.291Z,343.13
2017-11-26T12:25:50.297Z,303.75
2017-11-26T12:26:50.316Z,270.00
2017-11-26T12:27:50.353Z,258.75
2017-11-26T12:28:50.328Z,219.38
2017-11-26T12:29:50.335Z,185.63
2017-11-26T12:30:50.348Z,168.75
2017-11-26T12:31:50.355Z,123.75
2017-11-26T12:32:50.357Z,90.00
2017-11-26T12:33:50.362Z,78.75
2017-11-26T12:34:50.371Z,90.00
2017-11-26T12:35:50.396Z,123.75
2017-11-26T12:36:50.396Z,140.63
2017-11-26T12:37:50.413Z,146.25
2017-11-26T12:38:50.401Z,140.63
2017-11-26T12:39:50.417Z,106.88
2017-11-26T12:40:50.423Z,101.25
2017-11-26T12:41:50.422Z,118.13
2017-11-26T12:42:50.499Z,146.25
2017-11-26T12:43:50.446Z,129.38
2017-11-26T12:44:50.453Z,118.13
2017-11-26T12:45:50.452Z,118.13
2017-11-26T12:46:50.470Z,118.13
2017-11-26T12:47:50.473Z,106.88
2017-11-26T12:48:50.481Z,123.75
2017-11-26T12:49:50.496Z,118.13
2017-11-26T12:50:50.508Z,118.13
2017-11-26T12:51:50.503Z,112.50
2017-11-26T12:52:50.506Z,118.13
2017-11-26T12:53:50.519Z,123.75
2017-11-26T12:54:50.531Z,118.13
2017-11-26T12:55:50.534Z,106.88
2017-11-26T12:56:50.550Z,123.75
2017-11-26T12:57:50.543Z,101.25
2017-11-26T12:58:50.548Z,78.75
2017-11-26T12:59:50.569Z,73.13
2017-11-26T13:00:50.568Z,61.88
2017-11-26T13:01:50.575Z,61.88
2017-11-26T13:02:50.586Z,56.25
2017-11-26T13:03:50.585Z,56.25